»·PEaware :: DAL761 KSAN-KRAL

DAL761 :: KSAN-KRAL

FLIGHT INFORMATION

Flight Status: Arrived
Operator:
Delta Air Lines
More flights by this operator :: More flights under this callsign
Pilot: Bruce B. (293)
Aircraft: AÉROSPATIALE ATR-72
(AT72)
More flights by this aircraft type
Origin: KSAN San Diego Intl-Lindbergh
United States
Destination: KRAL Riverside Mun
United States
More flights between these airports :: More routes between these airports
Route: +HAILE V186 PDZ
File this flight plan on PilotEdge
Remarks: / V /
Altitude:
(Current/Filed)
10,000ft
Speed:
(Current/Filed)
220kts
Departed: 10-Jul-12 10:53 AM
Arrived: 10-Jul-12 11:21 AM
Distance/Time
Traveled:
74nm/0:28
Distance/Time
To Go:
Arrived

Flight Plot

Page will automatically refresh every two minutes.


Map Options




Map Legend


Flown Route
Filed Route
Departure Airport
Arrival Airport
Navaid (VOR, NDB)
Fix

Horizontal Profiles

Position Reports

Time Latitude Longitude Heading Altitude Ground
Speed
10-Jul-12 10:27 32.733248 -117.201880 87 21ft 0kts
10-Jul-12 10:28 32.733248 -117.201880 87 21ft 0kts
10-Jul-12 10:29 32.733248 -117.201880 87 21ft 0kts
10-Jul-12 10:30 32.733248 -117.201880 87 21ft 0kts
10-Jul-12 10:31 32.733248 -117.201880 87 21ft 0kts
10-Jul-12 10:32 32.733248 -117.201880 87 21ft 0kts
10-Jul-12 10:33 32.733241 -117.202108 87 21ft 2kts
10-Jul-12 10:34 32.733237 -117.202272 88 21ft 0kts
10-Jul-12 10:35 32.733237 -117.202272 88 21ft 0kts
10-Jul-12 10:36 32.733237 -117.202272 88 21ft 0kts
10-Jul-12 10:37 32.733237 -117.202272 88 21ft 0kts
10-Jul-12 10:38 32.733237 -117.202272 88 21ft 0kts
10-Jul-12 10:39 32.733237 -117.202272 88 21ft 0kts
10-Jul-12 10:40 32.733237 -117.202268 87 21ft 0kts
10-Jul-12 10:41 32.733237 -117.202261 87 21ft 0kts
10-Jul-12 10:42 32.733237 -117.202255 87 21ft 0kts
10-Jul-12 10:43 32.735048 -117.201618 85 21ft 20kts
10-Jul-12 10:44 32.734022 -117.195972 98 21ft 6kts
10-Jul-12 10:45 32.733021 -117.191289 105 21ft 11kts
10-Jul-12 10:46 32.731594 -117.185454 104 21ft 22kts
10-Jul-12 10:47 32.729931 -117.178262 105 21ft 19kts
10-Jul-12 10:48 32.729831 -117.177838 105 21ft 0kts
10-Jul-12 10:49 32.729694 -117.177232 104 21ft 17kts
10-Jul-12 10:50 32.730158 -117.176130 311 21ft 13kts
10-Jul-12 10:51 32.731739 -117.182047 286 21ft 92kts
10-Jul-12 10:52 32.739842 -117.221487 279 1602ft 121kts
10-Jul-12 10:53 32.750303 -117.262303 299 3330ft 130kts
10-Jul-12 10:55 32.799917 -117.348906 302 5899ft 169kts
10-Jul-12 10:56 32.846903 -117.372471 36 7402ft 177kts
10-Jul-12 10:57 32.865896 -117.319017 50 8723ft 181kts
10-Jul-12 10:58 32.906131 -117.303478 11 9792ft 187kts
10-Jul-12 10:59 32.964751 -117.289082 12 9995ft 241kts
10-Jul-12 11:00 33.034026 -117.272083 12 9992ft 262kts
10-Jul-12 11:01 33.106778 -117.254198 12 9990ft 267kts
10-Jul-12 11:02 33.180010 -117.236168 12 9992ft 268kts
10-Jul-12 11:03 33.251679 -117.218528 12 9989ft 258kts
10-Jul-12 11:04 33.320894 -117.201323 13 9989ft 250kts
10-Jul-12 11:05 33.388951 -117.183825 12 9992ft 248kts
10-Jul-12 11:06 33.456713 -117.166464 13 9990ft 248kts
10-Jul-12 11:07 33.519289 -117.193883 324 9993ft 248kts
10-Jul-12 11:08 33.575380 -117.243328 323 9692ft 251kts
10-Jul-12 11:09 33.632495 -117.290826 325 8541ft 248kts
10-Jul-12 11:10 33.688956 -117.338468 324 7339ft 246kts
10-Jul-12 11:11 33.744230 -117.386420 324 6201ft 241kts
10-Jul-12 11:12 33.795339 -117.431038 324 6002ft 212kts
10-Jul-12 11:13 33.837499 -117.477493 320 4757ft 197kts
10-Jul-12 11:14 33.885363 -117.478041 35 3658ft 175kts
10-Jul-12 11:15 33.897553 -117.427554 96 2462ft 154kts
10-Jul-12 11:16 33.916122 -117.394898 9 1657ft 119kts
10-Jul-12 11:17 33.943430 -117.408505 303 1383ft 130kts
10-Jul-12 11:18 33.952820 -117.446307 282 824ft 70kts
10-Jul-12 11:19 33.953086 -117.449305 208 824ft 0kts
10-Jul-12 11:20 33.951940 -117.445770 103 824ft 21kts
10-Jul-12 11:21 33.950574 -117.442545 117 824ft 11kts
10-Jul-12 11:22 33.948872 -117.440025 95 824ft 9kts
10-Jul-12 11:23 33.948652 -117.438749 91 824ft 0kts
10-Jul-12 11:24 33.948652 -117.438748 91 824ft 0kts
10-Jul-12 11:25 33.948652 -117.438747 91 824ft 0kts
10-Jul-12 11:26 33.948652 -117.438747 91 824ft 0kts

Navigation Log

Ident Type
Flight plan parsing failed, navigation log unavailable